Time;durP1;ratioP1;P1;durP2;ratioP2;P2;SDS_P1;SDS_P2;PMS_P1;PMS_P2;Temp;Humidity;BMP_temperature;BMP_pressure;BME280_temperature;BME280_humidity;BME280_pressure;Samples;Min_cycle;Max_cycle;Signal;HPM_P1;HPM_P2
2023/06/11 00:00:02;;;;;;;6.20;2.50;;;;;;;;;;5120450;28;20519;-60
2023/06/11 00:02:33;;;;;;;5.13;3.17;;;;;;;;;;5118400;28;20474;-61
2023/06/11 00:05:00;;;;;;;5.30;2.97;;;;;;;;;;5121046;27;20945;-61
2023/06/11 00:07:30;;;;;;;5.50;3.10;;;21.10;73.60;;;;;;5120308;28;20417;-62
2023/06/11 00:09:57;;;;;;;3.23;2.87;;;21.10;80.80;;;;;;5120282;28;20525;-61
2023/06/11 00:12:25;;;;;;;3.93;2.57;;;;;;;;;;5120447;28;20464;-62
2023/06/11 00:14:53;;;;;;;6.73;3.40;;;20.70;81.10;;;;;;5121150;28;20436;-61
2023/06/11 00:17:21;;;;;;;4.50;2.40;;;;;;;;;;5119102;28;20449;-61
2023/06/11 00:19:48;;;;;;;3.80;2.23;;;;;;;;;;5120936;28;20458;-61
2023/06/11 00:22:17;;;;;;;4.53;2.33;;;20.90;74.80;;;;;;5121319;28;20504;-61
2023/06/11 00:24:45;;;;;;;3.47;2.57;;;;;;;;;;5121864;28;20454;-61
2023/06/11 00:27:13;;;;;;;3.80;2.13;;;;;;;;;;5121071;28;20440;-61
2023/06/11 00:29:42;;;;;;;2.23;1.97;;;;;;;;;;5120458;28;20449;-61
2023/06/11 00:32:12;;;;;;;4.83;2.80;;;;;;;;;;5121276;28;20466;-61
2023/06/11 00:34:39;;;;;;;4.97;2.80;;;;;;;;;;5120935;28;20504;-62
2023/06/11 00:37:08;;;;;;;3.43;2.53;;;20.20;76.50;;;;;;5119588;28;20532;-60
2023/06/11 00:39:36;;;;;;;6.67;2.40;;;;;;;;;;5120453;28;20435;-61
2023/06/11 00:42:03;;;;;;;4.50;2.30;;;;;;;;;;5118798;28;20471;-61
2023/06/11 00:44:33;;;;;;;7.37;3.10;;;;;;;;;;5120910;28;20460;-63
2023/06/11 00:47:01;;;;;;;3.30;2.50;;;;;;;;;;5119686;28;20775;-62
2023/06/11 00:49:30;;;;;;;6.87;3.10;;;;;;;;;;5119921;28;20464;-61
2023/06/11 00:51:59;;;;;;;5.90;2.47;;;;;;;;;;5120115;28;20445;-61
2023/06/11 00:54:26;;;;;;;5.67;2.63;;;;;;;;;;5120214;28;20987;-61
2023/06/11 00:56:54;;;;;;;7.93;2.37;;;;;;;;;;5118745;28;20472;-60
2023/06/11 00:59:25;;;;;;;4.13;2.37;;;19.80;78.30;;;;;;5124718;28;20429;-61
2023/06/11 01:01:57;;;;;;;3.03;2.20;;;20.10;85.00;;;;;;5124491;28;20571;-62
2023/06/11 01:04:26;;;;;;;4.17;2.07;;;20.30;84.70;;;;;;5124094;28;20433;-61
2023/06/11 01:07:00;;;;;;;3.27;2.40;;;19.70;86.70;;;;;;5123051;28;20431;-61
2023/06/11 01:09:30;;;;;;;4.83;2.30;;;19.90;88.00;;;;;;5123978;28;20484;-61
2023/06/11 01:11:58;;;;;;;4.47;2.27;;;;;;;;;;5122944;28;20440;-61
2023/06/11 01:14:26;;;;;;;5.10;2.07;;;19.80;86.20;;;;;;5123192;28;20428;-60
2023/06/11 01:17:02;;;;;;;4.30;2.90;;;19.70;87.50;;;;;;5122546;28;20439;-60
2023/06/11 01:19:56;;;;;;;5.33;2.70;;;19.80;78.60;;;;;;5122137;28;20475;-60
2023/06/11 01:22:30;;;;;;;4.00;2.00;;;19.70;86.30;;;;;;5121463;27;20556;-61
2023/06/11 01:25:25;;;;;;;4.80;3.63;;;19.70;78.60;;;;;;5122622;28;20547;-60
2023/06/11 01:28:09;;;;;;;2.80;1.90;;;19.60;79.00;;;;;;5122046;28;20478;-62
2023/06/11 01:30:38;;;;;;;6.33;2.33;;;19.80;87.00;;;;;;5123054;28;20535;-62
2023/06/11 01:33:08;;;;;;;3.00;2.43;;;;;;;;;;5122086;28;20424;-60
2023/06/11 01:35:35;;;;;;;8.03;2.40;;;;;;;;;;5122187;28;20440;-62
2023/06/11 01:38:02;;;;;;;4.63;2.93;;;;;;;;;;5121946;28;20939;-61
2023/06/11 01:40:30;;;;;;;3.97;2.37;;;;;;;;;;5121907;28;20513;-61
2023/06/11 01:43:00;;;;;;;3.07;2.30;;;19.20;81.60;;;;;;5120299;28;20533;-61
2023/06/11 01:45:32;;;;;;;2.70;2.40;;;19.30;86.80;;;;;;5120136;28;20507;-60
2023/06/11 01:47:59;;;;;;;6.30;3.30;;;;;;;;;;5119802;28;20471;-61
2023/06/11 01:50:27;;;;;;;2.67;2.43;;;;;;;;;;5119144;27;20472;-61
2023/06/11 01:52:54;;;;;;;3.20;2.37;;;;;;;;;;5120023;28;20437;-61
2023/06/11 01:55:21;;;;;;;3.73;2.57;;;;;;;;;;5120250;28;20460;-60
2023/06/11 01:57:49;;;;;;;4.60;2.00;;;;;;;;;;5119923;28;20432;-60
2023/06/11 02:00:18;;;;;;;3.73;2.30;;;19.20;90.10;;;;;;5119617;28;20520;-61
2023/06/11 02:02:47;;;;;;;4.20;2.47;;;19.30;90.00;;;;;;5119263;28;20468;-60
2023/06/11 02:05:15;;;;;;;3.20;2.50;;;;;;;;;;5119961;28;20720;-60
2023/06/11 02:07:42;;;;;;;5.50;2.23;;;;;;;;;;5119845;28;20429;-61
2023/06/11 02:10:10;;;;;;;8.83;2.20;;;19.10;89.40;;;;;;5119983;27;20858;-60
2023/06/11 02:12:37;;;;;;;2.43;2.03;;;;;;;;;;5116702;28;20449;-61
2023/06/11 02:15:05;;;;;;;5.00;2.27;;;19.20;90.50;;;;;;5116310;28;21012;-61
2023/06/11 02:17:33;;;;;;;5.27;4.00;;;19.00;90.80;;;;;;5114178;28;20456;-66
2023/06/11 02:20:01;;;;;;;3.40;1.90;;;;;;;;;;5104121;28;20493;-65
2023/06/11 02:22:31;;;;;;;4.23;1.90;;;18.60;90.40;;;;;;5101034;28;20530;-72
2023/06/11 02:24:58;;;;;;;3.30;2.00;;;;;;;;;;5100043;28;20445;-68
2023/06/11 02:27:26;;;;;;;4.33;2.60;;;18.80;84.90;;;;;;5100504;28;20504;-68
2023/06/11 02:29:55;;;;;;;3.53;2.63;;;;;;;;;;5100734;28;20968;-68
2023/06/11 02:32:22;;;;;;;3.43;2.13;;;;;;;;;;5100503;28;20916;-69
2023/06/11 02:34:51;;;;;;;3.10;2.33;;;18.70;89.80;;;;;;5101184;28;20449;-68
2023/06/11 02:37:19;;;;;;;2.80;2.30;;;18.70;83.50;;;;;;5100297;28;20459;-66
2023/06/11 02:39:46;;;;;;;3.40;2.63;;;;;;;;;;5100682;28;20433;-68
2023/06/11 02:42:13;;;;;;;3.27;2.53;;;;;;;;;;5108121;28;21075;-68
2023/06/11 02:44:43;;;;;;;4.20;2.70;;;;;;;;;;5121479;28;20481;-69
2023/06/11 02:47:10;;;;;;;4.90;2.73;;;;;;;;;;5122937;28;20424;-67
2023/06/11 02:49:38;;;;;;;3.73;2.33;;;;;;;;;;5121867;28;20495;-67
2023/06/11 02:52:07;;;;;;;3.20;2.17;;;;;;;;;;5121579;28;20768;-68
2023/06/11 02:54:34;;;;;;;3.70;2.40;;;;;;;;;;5120757;28;20532;-68
2023/06/11 02:57:02;;;;;;;2.83;1.77;;;;;;;;;;5121332;28;20925;-69
2023/06/11 02:59:33;;;;;;;6.87;2.50;;;18.30;90.80;;;;;;5121968;27;20486;-68
2023/06/11 03:02:00;;;;;;;2.90;1.90;;;;;;;;;;5123333;28;20508;-65
2023/06/11 03:04:27;;;;;;;4.07;2.40;;;;;;;;;;5123685;28;20490;-72
2023/06/11 03:06:55;;;;;;;2.67;2.03;;;;;;;;;;5112961;28;20441;-71
2023/06/11 03:09:24;;;;;;;2.67;1.80;;;;;;;;;;5103253;28;20457;-70
2023/06/11 03:11:53;;;;;;;8.30;2.43;;;;;;;;;;5105082;28;20468;-72
2023/06/11 03:14:21;;;;;;;2.27;1.80;;;;;;;;;;5121074;28;20558;-71
2023/06/11 03:16:50;;;;;;;7.43;2.27;;;;;;;;;;5121699;28;20429;-70
2023/06/11 03:19:17;;;;;;;2.33;2.07;;;;;;;;;;5113792;28;20490;-71
2023/06/11 03:21:45;;;;;;;3.47;2.00;;;;;;;;;;5120230;28;20461;-73
2023/06/11 03:24:12;;;;;;;5.53;2.33;;;;;;;;;;5121486;28;20460;-73
2023/06/11 03:26:41;;;;;;;5.77;2.67;;;18.30;90.90;;;;;;5120758;28;20429;-72
2023/06/11 03:29:11;;;;;;;5.13;2.17;;;;;;;;;;5120786;28;20496;-72
2023/06/11 03:31:40;;;;;;;3.20;2.60;;;;;;;;;;5121160;28;20830;-72
2023/06/11 03:34:07;;;;;;;3.97;2.40;;;;;;;;;;5121445;28;20481;-71
2023/06/11 03:36:36;;;;;;;3.73;2.47;;;18.30;90.90;;;;;;5121769;28;20427;-71
2023/06/11 03:39:14;;;;;;;3.73;2.07;;;;;;;;;;5121590;28;21282;-72
2023/06/11 03:41:42;;;;;;;2.77;1.63;;;18.40;91.30;;;;;;5119256;28;21069;-72
2023/06/11 03:44:14;;;;;;;6.20;2.13;;;;;;;;;;5100505;28;20509;-73
2023/06/11 03:46:41;;;;;;;3.10;2.10;;;;;;;;;;5101700;28;20944;-71
2023/06/11 03:49:09;;;;;;;5.73;2.60;;;;;;;;;;5105224;28;20464;-70
2023/06/11 03:51:36;;;;;;;3.20;2.20;;;;;;;;;;5122398;28;20526;-72
2023/06/11 03:54:04;;;;;;;2.20;1.90;;;18.00;91.20;;;;;;5120395;28;20451;-73
2023/06/11 03:56:34;;;;;;;4.80;2.37;;;18.10;91.30;;;;;;5119621;28;20471;-72
2023/06/11 03:59:03;;;;;;;2.77;2.03;;;18.20;91.40;;;;;;5118967;28;20444;-74
2023/06/11 04:01:33;;;;;;;6.33;2.00;;;;;;;;;;5118625;28;20954;-73
2023/06/11 04:04:04;;;;;;;5.43;2.50;;;18.20;86.60;;;;;;5119469;28;20523;-73
2023/06/11 04:06:37;;;;;;;3.00;1.80;;;18.10;91.60;;;;;;5120105;28;20448;-71
2023/06/11 04:09:05;;;;;;;5.70;2.50;;;;;;;;;;5119889;28;20429;-71
2023/06/11 04:11:32;;;;;;;6.37;2.57;;;;;;;;;;5120577;28;20586;-72
2023/06/11 04:14:00;;;;;;;3.70;2.17;;;;;;;;;;5120338;28;20943;-72
2023/06/11 04:16:28;;;;;;;3.33;2.60;;;18.20;91.80;;;;;;5120316;28;20493;-72
2023/06/11 04:18:55;;;;;;;3.10;1.83;;;;;;;;;;5120151;28;20479;-71
2023/06/11 04:21:23;;;;;;;5.00;2.13;;;;;;;;;;5121045;28;20484;-71
2023/06/11 04:23:50;;;;;;;7.67;2.10;;;;;;;;;;5121567;28;20999;-72
2023/06/11 04:26:19;;;;;;;3.70;2.27;;;;;;;;;;5122454;28;20501;-70
2023/06/11 04:28:48;;;;;;;3.67;2.27;;;18.30;90.90;;;;;;5121684;28;20441;-72
2023/06/11 04:31:15;;;;;;;3.77;1.63;;;;;;;;;;5120946;28;20537;-69
2023/06/11 04:33:55;;;;;;;4.93;1.73;;;18.10;85.90;;;;;;5119813;28;20459;-70
2023/06/11 04:36:27;;;;;;;4.10;1.93;;;18.00;86.00;;;;;;5122527;28;20428;-70
2023/06/11 04:39:04;;;;;;;2.70;1.97;;;;;;;;;;5121497;28;20462;-72
2023/06/11 04:41:32;;;;;;;2.47;2.00;;;;;;;;;;5121393;28;21022;-72
2023/06/11 04:44:05;;;;;;;4.63;2.07;;;;;;;;;;5121573;28;20476;-71
2023/06/11 04:46:34;;;;;;;3.80;1.60;;;;;;;;;;5121982;28;20443;-70
2023/06/11 04:49:04;;;;;;;4.97;1.77;;;;;;;;;;5119928;28;20463;-70
2023/06/11 04:51:33;;;;;;;2.70;2.30;;;18.10;85.90;;;;;;5117732;28;20479;-71
2023/06/11 04:54:00;;;;;;;4.43;1.83;;;;;;;;;;5112868;28;20769;-72
2023/06/11 04:56:29;;;;;;;2.90;1.60;;;18.20;86.60;;;;;;5121313;28;20482;-71
2023/06/11 04:58:56;;;;;;;3.00;2.27;;;;;;;;;;5121365;28;20424;-71
2023/06/11 05:01:30;;;;;;;4.70;2.43;;;;;;;;;;5120437;28;20490;-72
2023/06/11 05:03:57;;;;;;;2.23;2.03;;;;;;;;;;5121669;28;20541;-70
2023/06/11 05:06:26;;;;;;;3.20;1.93;;;18.40;92.00;;;;;;5121706;28;20493;-71
2023/06/11 05:08:53;;;;;;;4.43;2.03;;;18.60;90.80;;;;;;5121329;28;20421;-71
2023/06/11 05:11:23;;;;;;;2.77;2.43;;;;;;;;;;5120022;28;20469;-71
2023/06/11 05:13:52;;;;;;;2.83;2.07;;;;;;;;;;5120205;28;20716;-71
2023/06/11 05:16:21;;;;;;;3.40;2.20;;;;;;;;;;5121256;28;20425;-71
2023/06/11 05:18:52;;;;;;;3.27;2.40;;;;;;;;;;5115993;28;20445;-71
2023/06/11 05:21:20;;;;;;;3.70;2.47;;;;;;;;;;5108999;28;20469;-72
2023/06/11 05:23:51;;;;;;;3.50;2.20;;;18.80;92.50;;;;;;5100144;28;20470;-72
2023/06/11 05:26:19;;;;;;;3.40;2.40;;;;;;;;;;5099685;28;20552;-73
2023/06/11 05:28:51;;;;;;;3.13;2.17;;;18.70;88.00;;;;;;5100875;28;20446;-72
2023/06/11 05:31:21;;;;;;;5.83;2.43;;;;;;;;;;5110700;28;20468;-71
2023/06/11 05:33:48;;;;;;;5.67;2.30;;;18.80;91.40;;;;;;5119402;28;20432;-72
2023/06/11 05:36:16;;;;;;;4.03;2.40;;;;;;;;;;5118625;28;20948;-72
2023/06/11 05:38:43;;;;;;;2.60;1.80;;;;;;;;;;5123163;28;20432;-71
2023/06/11 05:41:12;;;;;;;3.90;2.00;;;18.90;92.20;;;;;;5120322;28;20465;-72
2023/06/11 05:43:40;;;;;;;3.33;2.20;;;18.90;88.00;;;;;;5120075;28;20492;-71
2023/06/11 05:46:08;;;;;;;3.27;1.97;;;;;;;;;;5124927;28;20429;-75
2023/06/11 05:48:38;;;;;;;2.47;1.80;;;;;;;;;;5124624;28;20441;-75
2023/06/11 05:51:05;;;;;;;2.90;2.30;;;;;;;;;;5124420;28;21000;-73
2023/06/11 05:53:32;;;;;;;3.50;2.10;;;;;;;;;;5124896;28;20444;-65
2023/06/11 05:56:03;;;;;;;4.00;2.30;;;;;;;;;;5123495;28;20441;-71
2023/06/11 05:58:32;;;;;;;2.67;2.20;;;18.90;92.20;;;;;;5124640;28;20489;-71
2023/06/11 06:01:02;;;;;;;4.17;2.40;;;;;;;;;;5125087;28;20826;-71
2023/06/11 06:03:30;;;;;;;4.07;2.37;;;19.70;90.90;;;;;;5122857;28;20468;-69
2023/06/11 06:05:59;;;;;;;3.17;2.00;;;19.40;87.40;;;;;;5122102;28;20453;-73
2023/06/11 06:08:27;;;;;;;5.20;2.53;;;;;;;;;;5122072;28;20452;-71
2023/06/11 06:10:56;;;;;;;3.80;2.10;;;19.60;92.20;;;;;;5124922;28;20990;-73
2023/06/11 06:13:23;;;;;;;5.57;2.53;;;;;;;;;;5109247;28;20816;-73
2023/06/11 06:15:52;;;;;;;4.13;2.70;;;19.70;91.90;;;;;;5103793;28;20475;-73
2023/06/11 06:18:21;;;;;;;4.90;2.57;;;19.80;87.30;;;;;;5104269;28;20421;-72
2023/06/11 06:20:49;;;;;;;4.30;2.37;;;;;;;;;;5103903;28;20462;-73
2023/06/11 06:23:17;;;;;;;5.63;2.80;;;;;;;;;;5108864;28;20891;-74
2023/06/11 06:25:45;;;;;;;6.30;2.60;;;;;;;;;;5121220;28;20477;-74
2023/06/11 06:28:12;;;;;;;6.33;2.20;;;;;;;;;;5108955;28;20496;-71
2023/06/11 06:30:40;;;;;;;4.30;2.83;;;20.10;87.10;;;;;;5110718;27;20465;-72
2023/06/11 06:33:08;;;;;;;3.57;2.10;;;20.30;91.90;;;;;;5102115;28;20429;-74
2023/06/11 06:35:35;;;;;;;5.27;2.10;;;;;;;;;;5101431;28;20482;-73
2023/06/11 06:38:03;;;;;;;4.10;2.90;;;;;;;;;;5101136;28;20792;-72
2023/06/11 06:40:30;;;;;;;5.00;2.57;;;;;;;;;;5100801;28;20458;-72
2023/06/11 06:42:57;;;;;;;3.07;2.77;;;;;;;;;;5100568;28;20480;-73
2023/06/11 06:45:25;;;;;;;7.10;2.57;;;;;;;;;;5101419;28;20433;-73
2023/06/11 06:47:52;;;;;;;3.60;2.33;;;;;;;;;;5100073;28;20429;-72
2023/06/11 06:50:21;;;;;;;5.40;3.10;;;20.60;90.60;;;;;;5100510;28;20511;-72
2023/06/11 06:52:48;;;;;;;3.47;2.37;;;;;;;;;;5100776;28;20461;-71
2023/06/11 06:55:16;;;;;;;4.53;3.20;;;;;;;;;;5098303;28;20438;-71
2023/06/11 06:57:43;;;;;;;7.23;2.70;;;;;;;;;;5100115;28;20425;-71
2023/06/11 07:00:11;;;;;;;3.60;2.43;;;21.00;90.90;;;;;;5100626;28;20465;-72
2023/06/11 07:02:39;;;;;;;5.03;3.23;;;21.10;86.90;;;;;;5099805;28;20433;-70
2023/06/11 07:05:06;;;;;;;7.53;4.30;;;;;;;;;;5100159;28;20593;-70
2023/06/11 07:07:37;;;;;;;7.80;5.30;;;;;;;;;;5100696;28;20463;-70
2023/06/11 07:10:05;;;;;;;6.00;2.80;;;;;;;;;;5122346;28;20484;-70
2023/06/11 07:12:33;;;;;;;3.57;3.00;;;;;;;;;;5120026;28;20449;-74
2023/06/11 07:15:01;;;;;;;4.60;3.67;;;;;;;;;;5101323;28;20425;-74
2023/06/11 07:17:28;;;;;;;5.23;2.77;;;23.00;86.90;;;;;;5112733;28;20555;-72
2023/06/11 07:19:55;;;;;;;4.60;2.87;;;;;;;;;;5117910;28;20461;-72
2023/06/11 07:22:23;;;;;;;5.80;2.90;;;26.50;77.90;;;;;;5117221;28;20501;-72
2023/06/11 07:24:51;;;;;;;4.50;3.10;;;28.50;72.20;;;;;;5116766;28;20467;-71
2023/06/11 07:27:19;;;;;;;4.70;4.40;;;;;;;;;;5116415;28;20859;-72
2023/06/11 07:29:48;;;;;;;5.20;3.60;;;;;;;;;;5115367;28;20489;-71
2023/06/11 07:32:15;;;;;;;5.40;3.03;;;;;;;;;;5115782;28;20460;-72
2023/06/11 07:34:43;;;;;;;6.20;3.20;;;;;;;;;;5115461;28;20506;-72
2023/06/11 07:37:13;;;;;;;3.00;2.70;;;;;;;;;;5115419;28;20428;-74
2023/06/11 07:39:41;;;;;;;6.20;2.97;;;34.90;53.20;;;;;;5115494;28;20464;-73
2023/06/11 07:42:11;;;;;;;3.63;3.23;;;35.20;52.10;;;;;;5114565;28;20469;-73
2023/06/11 07:44:39;;;;;;;5.40;3.37;;;;;;;;;;5115335;28;20565;-72
2023/06/11 07:47:07;;;;;;;3.00;2.80;;;;;;;;;;5116170;28;20431;-73
2023/06/11 07:49:34;;;;;;;3.57;2.90;;;;;;;;;;5115627;28;20465;-73
2023/06/11 07:52:03;;;;;;;3.37;3.07;;;36.90;48.50;;;;;;5115546;28;20441;-73
2023/06/11 07:54:30;;;;;;;3.97;3.33;;;;;;;;;;5114681;28;20455;-74
2023/06/11 07:57:01;;;;;;;7.90;3.10;;;;;;;;;;5110764;28;20449;-73
2023/06/11 07:59:30;;;;;;;4.60;2.83;;;;;;;;;;5099127;28;20477;-72
2023/06/11 08:01:57;;;;;;;9.43;3.53;;;;;;;;;;5094563;28;20434;-71
2023/06/11 08:04:25;;;;;;;5.57;3.00;;;36.80;47.60;;;;;;5095163;28;20473;-71
2023/06/11 08:06:54;;;;;;;4.00;3.30;;;;;;;;;;5094806;28;20460;-72
2023/06/11 08:09:22;;;;;;;5.60;2.90;;;;;;;;;;5095856;28;20473;-72
2023/06/11 08:11:51;;;;;;;5.53;3.30;;;37.30;44.20;;;;;;5097721;28;20499;-72
2023/06/11 08:14:20;;;;;;;6.67;3.27;;;;;;;;;;5115103;28;20425;-72
2023/06/11 08:16:49;;;;;;;4.30;3.03;;;;;;;;;;5115425;28;20437;-72
2023/06/11 08:19:16;;;;;;;4.97;3.27;;;;;;;;;;5115278;28;20955;-72
2023/06/11 08:21:43;;;;;;;3.13;2.63;;;;;;;;;;5114786;28;20495;-71
2023/06/11 08:24:13;;;;;;;2.83;2.50;;;;;;;;;;5114769;28;20469;-67
2023/06/11 08:26:42;;;;;;;5.10;3.10;;;;;;;;;;5115032;28;20496;-69
2023/06/11 08:29:09;;;;;;;4.33;3.50;;;;;;;;;;5114752;28;20429;-67
2023/06/11 08:31:37;;;;;;;5.60;3.00;;;;;;;;;;5111004;28;20533;-68
2023/06/11 08:34:05;;;;;;;4.73;3.30;;;37.20;46.30;;;;;;5107256;28;20924;-68
2023/06/11 08:36:34;;;;;;;7.57;4.30;;;;;;;;;;5109336;28;20483;-68
2023/06/11 08:39:02;;;;;;;3.70;3.40;;;;;;;;;;5103072;28;20448;-68
2023/06/11 08:41:31;;;;;;;3.40;2.83;;;;;;;;;;5093640;28;20469;-68
2023/06/11 08:43:59;;;;;;;5.37;2.80;;;;;;;;;;5112816;28;20476;-68
2023/06/11 08:46:26;;;;;;;4.60;2.87;;;36.50;46.70;;;;;;5108111;28;20473;-67
2023/06/11 08:48:59;;;;;;;4.90;3.73;;;36.50;41.40;;;;;;5107270;28;20933;-68
2023/06/11 08:51:35;;;;;;;4.23;3.53;;;36.90;46.50;;;;;;5103505;28;20520;-69
2023/06/11 08:54:02;;;;;;;6.40;3.30;;;;;;;;;;5114713;28;20772;-68
2023/06/11 08:56:30;;;;;;;6.03;3.53;;;36.70;46.10;;;;;;5105707;28;20536;-69
2023/06/11 08:58:59;;;;;;;4.77;4.37;;;36.80;43.00;;;;;;5108530;28;20449;-65
2023/06/11 09:01:27;;;;;;;3.50;3.20;;;37.00;42.90;;;;;;5101944;28;20501;-67
2023/06/11 09:03:55;;;;;;;5.53;4.10;;;;;;;;;;5116910;28;20496;-66
2023/06/11 09:06:22;;;;;;;6.43;3.60;;;;;;;;;;5116165;28;20793;-67
2023/06/11 09:08:59;;;;;;;6.70;4.10;;;36.90;45.20;;;;;;5116723;28;20449;-66
2023/06/11 09:11:33;;;;;;;3.60;3.30;;;37.10;45.90;;;;;;5116155;28;20472;-65
2023/06/11 09:14:00;;;;;;;4.00;3.50;;;;;;;;;;5108008;28;20458;-68
2023/06/11 09:16:29;;;;;;;3.40;3.10;;;;;;;;;;5093323;28;20493;-67
2023/06/11 09:18:57;;;;;;;4.77;3.03;;;;;;;;;;5096754;28;20482;-65
2023/06/11 09:21:25;;;;;;;7.63;4.23;;;;;;;;;;5099341;28;20465;-68
2023/06/11 09:23:53;;;;;;;7.00;4.20;;;;;;;;;;5115238;28;20447;-68
2023/06/11 09:26:22;;;;;;;6.93;4.20;;;37.20;45.70;;;;;;5120223;28;20441;-67
2023/06/11 09:28:53;;;;;;;4.33;4.00;;;36.90;40.20;;;;;;5119937;28;20886;-69
2023/06/11 09:31:21;;;;;;;4.37;3.83;;;;;;;;;;5119424;28;20470;-69
2023/06/11 09:33:48;;;;;;;4.57;4.17;;;;;;;;;;5119258;28;20441;-68
2023/06/11 09:36:18;;;;;;;6.03;4.20;;;37.20;45.40;;;;;;5117834;28;20807;-68
2023/06/11 09:38:48;;;;;;;5.60;3.60;;;37.00;45.40;;;;;;5119371;28;20431;-68
2023/06/11 09:41:16;;;;;;;4.53;3.80;;;37.00;43.10;;;;;;5119205;28;20547;-68
2023/06/11 09:43:52;;;;;;;8.07;4.30;;;37.10;40.50;;;;;;5118791;28;20514;-68
2023/06/11 09:46:19;;;;;;;6.47;4.83;;;;;;;;;;5119437;28;20420;-68
2023/06/11 09:48:48;;;;;;;3.90;3.50;;;;;;;;;;5119835;28;20440;-68
2023/06/11 09:51:21;;;;;;;6.20;3.40;;;37.30;46.00;;;;;;5118956;28;20503;-68
2023/06/11 09:53:51;;;;;;;6.30;3.93;;;37.20;46.00;;;;;;5117702;28;20441;-68
2023/06/11 09:56:19;;;;;;;4.40;4.00;;;37.40;44.20;;;;;;5118402;28;20436;-68
2023/06/11 09:58:49;;;;;;;4.27;3.87;;;36.80;45.60;;;;;;5118829;28;20505;-68
2023/06/11 10:01:18;;;;;;;4.30;3.90;;;36.90;45.20;;;;;;5119202;28;20467;-69
2023/06/11 10:03:47;;;;;;;4.30;3.73;;;;;;;;;;5118491;28;21113;-69
2023/06/11 10:06:18;;;;;;;5.50;5.00;;;36.60;46.00;;;;;;5118013;28;20468;-69
2023/06/11 10:08:48;;;;;;;4.80;4.30;;;36.80;46.40;;;;;;5118599;28;20460;-69
2023/06/11 10:11:17;;;;;;;4.20;3.60;;;36.50;47.00;;;;;;5118237;28;20464;-68
2023/06/11 10:13:59;;;;;;;4.10;3.70;;;36.30;47.30;;;;;;5117218;28;20822;-68
2023/06/11 10:16:27;;;;;;;5.90;4.40;;;;;;;;;;5117633;28;20470;-68
2023/06/11 10:19:04;;;;;;;6.13;4.67;;;36.10;47.20;;;;;;5118142;28;20433;-68
2023/06/11 10:21:36;;;;;;;4.80;3.67;;;36.00;46.60;;;;;;5117651;28;20824;-69
2023/06/11 10:24:05;;;;;;;5.77;4.23;;;;;;;;;;5117317;28;20452;-68
2023/06/11 10:26:36;;;;;;;6.17;5.23;;;35.70;41.90;;;;;;5116846;28;20488;-69
2023/06/11 10:29:11;;;;;;;4.77;4.37;;;35.70;42.00;;;;;;5116771;28;20443;-69
2023/06/11 10:31:41;;;;;;;6.13;4.53;;;;;;;;;;5114980;28;20555;-69
2023/06/11 10:34:15;;;;;;;5.00;4.43;;;35.10;43.30;;;;;;5116909;27;20441;-67
2023/06/11 10:36:42;;;;;;;7.83;4.60;;;;;;;;;;5116773;28;20467;-68
2023/06/11 10:39:14;;;;;;;5.90;4.50;;;34.50;49.60;;;;;;5117408;28;20432;-69
2023/06/11 10:41:41;;;;;;;4.40;4.00;;;;;;;;;;5117127;28;20483;-69
2023/06/11 10:44:15;;;;;;;6.27;4.47;;;33.90;50.10;;;;;;5116877;28;20429;-68
2023/06/11 10:46:51;;;;;;;6.33;4.93;;;33.00;45.00;;;;;;5116023;28;20477;-68
2023/06/11 10:49:23;;;;;;;5.63;4.83;;;32.20;52.00;;;;;;5117473;28;20516;-68
2023/06/11 10:51:50;;;;;;;6.90;4.80;;;32.20;51.00;;;;;;5116563;28;20464;-68
2023/06/11 10:54:25;;;;;;;6.03;4.73;;;;;;;;;;5117061;28;20432;-68
2023/06/11 10:56:52;;;;;;;9.97;4.37;;;;;;;;;;5116834;28;20856;-68
2023/06/11 10:59:21;;;;;;;4.90;3.77;;;31.50;54.70;;;;;;5116048;28;20507;-68
2023/06/11 11:01:48;;;;;;;4.50;4.10;;;;;;;;;;5116141;28;20494;-68
2023/06/11 11:04:16;;;;;;;5.97;5.23;;;;;;;;;;5116906;28;20451;-68
2023/06/11 11:06:44;;;;;;;7.10;5.87;;;;;;;;;;5116491;28;20457;-69
2023/06/11 11:09:12;;;;;;;6.57;5.00;;;;;;;;;;5117246;28;20924;-69
2023/06/11 11:11:41;;;;;;;10.57;6.13;;;;;;;;;;5116732;28;20461;-69
2023/06/11 11:14:08;;;;;;;5.37;4.50;;;;;;;;;;5096235;28;20430;-67
2023/06/11 11:16:37;;;;;;;7.17;6.30;;;32.10;52.40;;;;;;5096923;28;20428;-68
2023/06/11 11:19:04;;;;;;;6.27;5.67;;;;;;;;;;5097055;28;21026;-68
2023/06/11 11:21:31;;;;;;;7.10;5.17;;;;;;;;;;5096543;28;20469;-67
2023/06/11 11:23:59;;;;;;;7.03;4.97;;;;;;;;;;5096566;28;20950;-68
2023/06/11 11:26:27;;;;;;;5.57;5.07;;;;;;;;;;5096168;28;20970;-68
2023/06/11 11:28:54;;;;;;;6.03;5.47;;;;;;;;;;5095645;28;20475;-68
2023/06/11 11:31:23;;;;;;;7.43;5.50;;;32.30;51.80;;;;;;5096821;28;20462;-69
2023/06/11 11:33:52;;;;;;;6.70;5.27;;;32.20;52.20;;;;;;5096981;28;20462;-68
2023/06/11 11:36:20;;;;;;;5.93;5.33;;;;;;;;;;5096795;28;20475;-68
2023/06/11 11:38:47;;;;;;;5.90;5.30;;;;;;;;;;5096464;28;20426;-68
2023/06/11 11:41:15;;;;;;;7.30;5.70;;;;;;;;;;5095582;28;20474;-68
2023/06/11 11:43:44;;;;;;;11.33;5.40;;;31.80;54.00;;;;;;5111110;28;20867;-68
2023/06/11 11:46:16;;;;;;;6.07;5.57;;;31.60;48.60;;;;;;5115719;28;20567;-66
2023/06/11 11:48:43;;;;;;;7.17;5.60;;;;;;;;;;5116091;28;20799;-68
2023/06/11 11:51:13;;;;;;;6.53;5.10;;;31.50;55.20;;;;;;5115139;28;20503;-68
2023/06/11 11:53:42;;;;;;;7.23;5.70;;;31.20;53.00;;;;;;5114528;28;20453;-69
2023/06/11 11:56:09;;;;;;;11.00;8.03;;;;;;;;;;5116334;28;20441;-68
2023/06/11 11:58:38;;;;;;;7.73;6.30;;;31.30;55.60;;;;;;5114382;28;20448;-69
2023/06/11 12:01:08;;;;;;;7.17;6.43;;;;;;;;;;5116731;28;20571;-68
2023/06/11 12:03:36;;;;;;;8.20;5.87;;;31.00;55.70;;;;;;5115577;28;20441;-68
2023/06/11 12:06:05;;;;;;;6.23;5.73;;;30.40;58.00;;;;;;5115659;28;20464;-69
2023/06/11 12:08:40;;;;;;;6.13;5.30;;;30.10;58.80;;;;;;5115570;28;20456;-68
2023/06/11 12:11:07;;;;;;;6.67;5.50;;;;;;;;;;5115705;28;20482;-68
2023/06/11 12:13:34;;;;;;;7.77;6.20;;;;;;;;;;5115015;28;20481;-69
2023/06/11 12:16:01;;;;;;;6.60;5.37;;;;;;;;;;5115271;28;20813;-68
2023/06/11 12:18:29;;;;;;;6.07;5.47;;;;;;;;;;5114126;28;20421;-68
2023/06/11 12:20:56;;;;;;;5.97;5.47;;;;;;;;;;5113946;28;21029;-68
2023/06/11 12:23:25;;;;;;;7.13;5.00;;;29.70;60.40;;;;;;5114431;28;20425;-68
2023/06/11 12:25:57;;;;;;;6.13;5.10;;;29.80;60.50;;;;;;5115273;28;20465;-69
2023/06/11 12:28:25;;;;;;;6.13;5.53;;;;;;;;;;5114789;28;20459;-68
2023/06/11 12:30:52;;;;;;;6.17;5.50;;;;;;;;;;5115644;28;20499;-69
2023/06/11 12:33:19;;;;;;;6.43;5.73;;;30.00;61.20;;;;;;5115526;28;20439;-69
2023/06/11 12:35:47;;;;;;;6.73;6.10;;;;;;;;;;5115152;28;20473;-69
2023/06/11 12:38:17;;;;;;;6.93;6.23;;;;;;;;;;5115266;28;20463;-68
2023/06/11 12:40:44;;;;;;;8.03;7.00;;;;;;;;;;5115342;28;20555;-69
2023/06/11 12:43:13;;;;;;;7.87;7.17;;;29.10;64.60;;;;;;5115200;28;20468;-68
2023/06/11 12:45:42;;;;;;;7.40;6.70;;;;;;;;;;5115465;28;20577;-68
2023/06/11 12:48:09;;;;;;;9.07;6.43;;;;;;;;;;5116071;28;20428;-68
2023/06/11 12:50:38;;;;;;;7.93;6.37;;;;;;;;;;5114757;28;20469;-68
2023/06/11 12:53:05;;;;;;;6.30;5.70;;;;;;;;;;5112865;28;20445;-67
2023/06/11 12:55:34;;;;;;;9.30;6.77;;;;;;;;;;5113866;28;20425;-68
2023/06/11 12:58:01;;;;;;;6.43;5.87;;;;;;;;;;5115285;28;20432;-68
2023/06/11 13:00:31;;;;;;;6.67;6.07;;;29.60;57.50;;;;;;5115961;28;20475;-68
2023/06/11 13:03:00;;;;;;;7.30;6.60;;;;;;;;;;5115354;28;20429;-68
2023/06/11 13:05:29;;;;;;;10.90;6.30;;;29.80;57.10;;;;;;5113852;28;20905;-68
2023/06/11 13:07:58;;;;;;;9.30;7.67;;;29.80;60.90;;;;;;5114908;28;20445;-67
2023/06/11 13:10:28;;;;;;;7.57;6.73;;;29.90;56.60;;;;;;5115404;28;20465;-68
2023/06/11 13:12:56;;;;;;;6.27;5.67;;;;;;;;;;5114557;28;20436;-68
2023/06/11 13:15:24;;;;;;;8.23;7.20;;;;;;;;;;5115507;28;20429;-69
2023/06/11 13:17:53;;;;;;;7.90;7.20;;;30.00;62.90;;;;;;5114735;28;20437;-68
2023/06/11 13:20:21;;;;;;;6.93;6.23;;;;;;;;;;5114182;28;20492;-68
2023/06/11 13:22:48;;;;;;;7.80;6.80;;;;;;;;;;5115026;28;20424;-68
2023/06/11 13:25:21;;;;;;;7.20;6.30;;;30.00;63.30;;;;;;5114530;28;20500;-67
2023/06/11 13:27:50;;;;;;;10.40;6.87;;;30.00;56.10;;;;;;5114186;28;20482;-68
2023/06/11 13:30:17;;;;;;;7.13;6.53;;;;;;;;;;5115011;28;20967;-68
2023/06/11 13:32:45;;;;;;;6.80;6.20;;;;;;;;;;5115097;28;21033;-68
2023/06/11 13:35:13;;;;;;;6.80;6.10;;;30.30;62.50;;;;;;5115421;28;20463;-68
2023/06/11 13:37:41;;;;;;;7.00;6.30;;;;;;;;;;5114978;28;20471;-68
2023/06/11 13:40:11;;;;;;;10.30;7.23;;;30.50;61.50;;;;;;5114629;28;20496;-69
2023/06/11 13:42:38;;;;;;;8.17;6.70;;;;;;;;;;5112872;28;20486;-69
2023/06/11 13:45:06;;;;;;;7.07;5.47;;;30.60;59.60;;;;;;5113419;28;20468;-68
2023/06/11 13:47:35;;;;;;;9.40;6.07;;;;;;;;;;5115187;28;20543;-68
2023/06/11 13:50:03;;;;;;;7.53;6.73;;;;;;;;;;5114023;28;20472;-67
2023/06/11 13:52:31;;;;;;;6.73;6.00;;;30.60;60.90;;;;;;5115477;28;20486;-68
2023/06/11 13:55:00;;;;;;;8.33;7.47;;;;;;;;;;5115511;28;20461;-68
2023/06/11 13:57:27;;;;;;;7.03;5.83;;;;;;;;;;5112862;28;20448;-68
2023/06/11 13:59:55;;;;;;;7.50;6.70;;;;;;;;;;5115399;28;20473;-68
2023/06/11 14:02:22;;;;;;;17.53;13.97;;;;;;;;;;5115772;28;20439;-69